Terminal Aerodrome Forecast
Issued by NWS

Home | Current Version | Previous Version | Text Only | Print | Product List | Glossary On
Versions: 1 2 3 4 5 6 7 8 9 10 11 12 13 14 15 16 17 18 19 20
894
FTAK31 PAJN 030704 AAA
TAFASI
TAF AMD
PASI 030704Z 0307/0406 23020G35KT 4SM -SHRA BR BKN025 OVC035
      WS020/24040KT
     FM030900 22015G25KT 6SM -SHRA OVC030 WS020/26035KT
     FM031600 22015KT P6SM -SHRA OVC030
     FM040000 23012KT 5SM -SHRA BKN020 OVC030=

USA.gov is the U.S. government's official web portal to all federal, state and local government web resources and services.